Time;durP1;ratioP1;P1;durP2;ratioP2;P2;SDS_P1;SDS_P2;PMS_P1;PMS_P2;Temp;Humidity;BMP_temperature;BMP_pressure;BME280_temperature;BME280_humidity;BME280_pressure;Samples;Min_cycle;Max_cycle;Signal;HPM_P1;HPM_P2
2022/10/16 00:01:18;;;;;;;51.75;38.33;;;15.50;88.00;;;;;;5096395;28;20079;-72
2022/10/16 00:03:46;;;;;;;50.97;38.75;;;15.50;88.10;;;;;;5096240;28;20028;-72
2022/10/16 00:06:14;;;;;;;49.00;39.20;;;15.50;88.10;;;;;;5096421;28;20050;-73
2022/10/16 00:08:40;;;;;;;47.72;38.22;;;15.50;87.90;;;;;;5096334;28;20094;-72
2022/10/16 00:11:09;;;;;;;48.72;40.20;;;15.50;87.50;;;;;;5095981;28;20028;-73
2022/10/16 00:13:36;;;;;;;47.58;38.97;;;15.40;87.40;;;;;;5096186;28;20380;-72
2022/10/16 00:16:03;;;;;;;55.78;39.83;;;15.40;87.60;;;;;;5096240;28;20036;-73
2022/10/16 00:18:29;;;;;;;43.58;36.95;;;15.40;87.50;;;;;;5096323;28;20028;-73
2022/10/16 00:20:56;;;;;;;48.42;38.15;;;15.40;87.60;;;;;;5095966;28;20085;-73
2022/10/16 00:23:22;;;;;;;48.70;37.80;;;15.40;87.50;;;;;;5096060;28;20036;-72
2022/10/16 00:25:59;;;;;;;44.08;36.28;;;15.40;87.40;;;;;;5095765;28;20093;-73
2022/10/16 00:28:25;;;;;;;45.42;36.30;;;15.40;87.40;;;;;;5096096;28;20043;-72
2022/10/16 00:30:51;;;;;;;52.63;38.00;;;15.40;87.40;;;;;;5095613;28;20050;-73
2022/10/16 00:33:17;;;;;;;44.25;36.13;;;15.30;87.30;;;;;;5095593;28;20426;-73
2022/10/16 00:35:43;;;;;;;48.78;37.50;;;15.30;87.10;;;;;;5095616;28;20032;-72
2022/10/16 00:38:09;;;;;;;47.45;38.10;;;15.30;87.10;;;;;;5095645;28;20028;-73
2022/10/16 00:40:35;;;;;;;48.45;37.88;;;15.20;87.00;;;;;;5095602;28;20033;-72
2022/10/16 00:43:00;;;;;;;44.60;36.20;;;15.20;87.10;;;;;;5095783;28;20036;-72
2022/10/16 00:45:26;;;;;;;46.33;37.75;;;15.20;87.20;;;;;;5095808;28;20043;-73
2022/10/16 00:47:55;;;;;;;46.55;36.05;;;15.20;87.40;;;;;;5095718;28;20030;-72
2022/10/16 00:50:33;;;;;;;49.30;36.92;;;15.10;87.30;;;;;;5094367;28;20079;-73
2022/10/16 00:53:00;;;;;;;46.08;37.60;;;15.20;87.40;;;;;;5095395;28;20104;-72
2022/10/16 00:55:27;;;;;;;48.38;37.83;;;15.10;87.20;;;;;;5095212;28;20085;-72
2022/10/16 00:57:54;;;;;;;45.60;36.28;;;15.10;87.30;;;;;;5094379;28;20032;-73
2022/10/16 01:00:25;;;;;;;48.60;36.90;;;15.10;87.30;;;;;;5092115;28;20526;-73
2022/10/16 01:02:55;;;;;;;47.63;37.40;;;15.10;87.30;;;;;;5092537;28;20047;-72
2022/10/16 01:05:23;;;;;;;51.13;37.88;;;15.10;87.30;;;;;;5093976;28;20044;-76
2022/10/16 01:08:12;;;;;;;47.42;37.22;;;15.00;87.20;;;;;;5094970;28;20064;-72
2022/10/16 01:10:40;;;;;;;46.63;37.40;;;15.00;87.20;;;;;;5095016;28;20115;-73
2022/10/16 01:13:09;;;;;;;48.08;36.47;;;15.00;87.20;;;;;;5094925;28;20103;-73
2022/10/16 01:16:06;;;;;;;51.08;37.38;;;15.00;87.20;;;;;;5095066;28;20071;-73
2022/10/16 01:18:58;;;;;;;53.58;37.95;;;15.00;87.40;;;;;;5094928;28;20489;-72
2022/10/16 01:21:28;;;;;;;47.23;37.87;;;15.00;87.30;;;;;;5093415;28;20500;-73
2022/10/16 01:24:15;;;;;;;43.25;35.63;;;15.00;87.30;;;;;;5095348;28;20032;-72
2022/10/16 01:26:41;;;;;;;48.92;39.20;;;15.00;87.30;;;;;;5094752;28;20057;-73
2022/10/16 01:29:15;;;;;;;53.53;37.40;;;14.90;87.50;;;;;;5094245;28;20032;-72
2022/10/16 01:31:47;;;;;;;46.13;36.90;;;14.90;87.50;;;;;;5095227;28;20111;-72
2022/10/16 01:34:12;;;;;;;51.22;38.17;;;14.90;87.50;;;;;;5094670;28;20032;-72
2022/10/16 01:37:14;;;;;;;48.78;36.38;;;14.90;87.70;;;;;;5094301;28;20058;-72
2022/10/16 01:39:45;;;;;;;46.83;36.33;;;14.90;87.70;;;;;;5094605;28;20032;-72
2022/10/16 01:42:21;;;;;;;44.28;35.78;;;14.90;87.60;;;;;;5094316;28;20040;-73
2022/10/16 01:44:49;;;;;;;46.63;36.50;;;14.90;87.60;;;;;;5094538;28;20032;-73
2022/10/16 01:47:17;;;;;;;47.20;37.58;;;14.80;87.50;;;;;;5094497;28;20029;-72
2022/10/16 01:49:44;;;;;;;46.58;37.58;;;14.80;87.60;;;;;;5094461;28;20096;-79
2022/10/16 01:52:15;;;;;;;53.25;40.35;;;14.80;87.80;;;;;;5094391;28;20107;-73
2022/10/16 01:54:44;;;;;;;51.05;38.88;;;14.80;87.90;;;;;;5094265;28;20035;-73
2022/10/16 01:57:12;;;;;;;49.53;38.30;;;14.80;88.10;;;;;;5094134;28;20481;-73
2022/10/16 01:59:46;;;;;;;48.25;39.70;;;14.80;88.30;;;;;;5093931;28;20091;-73
2022/10/16 02:02:14;;;;;;;47.92;37.97;;;14.80;88.30;;;;;;5094265;28;20035;-72
2022/10/16 02:04:48;;;;;;;47.85;37.88;;;14.80;88.30;;;;;;5094072;28;20040;-72
2022/10/16 02:07:15;;;;;;;50.35;37.85;;;14.80;88.40;;;;;;5094137;28;20040;-72
2022/10/16 02:09:41;;;;;;;51.47;37.58;;;14.80;88.30;;;;;;5093879;28;20044;-73
2022/10/16 02:12:15;;;;;;;48.05;37.05;;;14.80;88.30;;;;;;5093609;28;20032;-73
2022/10/16 02:14:41;;;;;;;46.03;36.53;;;14.80;88.40;;;;;;5093874;28;20039;-72
2022/10/16 02:17:17;;;;;;;48.75;36.97;;;14.80;88.40;;;;;;5094074;28;20043;-73
2022/10/16 02:19:45;;;;;;;45.63;35.45;;;14.80;88.30;;;;;;5094207;28;20366;-72
2022/10/16 02:22:18;;;;;;;44.80;36.70;;;14.70;88.20;;;;;;5093412;28;20085;-73
2022/10/16 02:24:53;;;;;;;50.10;36.05;;;14.70;88.30;;;;;;5094084;28;20039;-72
2022/10/16 02:27:38;;;;;;;44.80;34.47;;;14.70;88.20;;;;;;5093711;28;20028;-72
2022/10/16 02:30:15;;;;;;;47.17;36.15;;;14.70;88.10;;;;;;5093584;28;20580;-80
2022/10/16 02:32:44;;;;;;;45.83;36.03;;;14.70;88.30;;;;;;5093568;28;20032;-72
2022/10/16 02:35:11;;;;;;;42.30;35.80;;;14.70;88.40;;;;;;5093342;28;20104;-72
2022/10/16 02:37:38;;;;;;;47.80;37.47;;;14.60;88.40;;;;;;5093663;28;20035;-72
2022/10/16 02:40:05;;;;;;;46.15;36.63;;;14.60;88.60;;;;;;5093675;28;20043;-73
2022/10/16 02:42:36;;;;;;;42.78;36.13;;;14.60;88.60;;;;;;5093464;28;20040;-73
2022/10/16 02:45:02;;;;;;;41.90;35.08;;;14.70;88.90;;;;;;5093202;28;20035;-72
2022/10/16 02:47:28;;;;;;;49.35;37.05;;;14.60;88.70;;;;;;5093240;28;20032;-72
2022/10/16 02:49:54;;;;;;;45.90;37.13;;;14.60;88.90;;;;;;5093597;28;20047;-72
2022/10/16 02:52:19;;;;;;;48.20;36.38;;;14.60;89.00;;;;;;5093355;28;20032;-72
2022/10/16 02:54:45;;;;;;;44.50;36.40;;;14.60;89.00;;;;;;5093537;28;20597;-72
2022/10/16 02:57:11;;;;;;;50.90;38.33;;;14.60;89.00;;;;;;5093070;28;20031;-73
2022/10/16 02:59:37;;;;;;;46.55;37.50;;;14.70;89.10;;;;;;5093251;28;20052;-73
2022/10/16 03:02:03;;;;;;;47.88;37.45;;;14.60;89.10;;;;;;5093333;28;20036;-72
2022/10/16 03:04:29;;;;;;;52.00;38.45;;;14.60;89.20;;;;;;5093221;28;20035;-72
2022/10/16 03:06:54;;;;;;;45.22;37.92;;;14.60;89.30;;;;;;5093442;28;20032;-72
2022/10/16 03:09:20;;;;;;;53.55;38.17;;;14.70;89.30;;;;;;5093027;28;20089;-72
2022/10/16 03:11:46;;;;;;;50.85;37.15;;;14.60;88.90;;;;;;5092909;28;20511;-73
2022/10/16 03:14:11;;;;;;;47.88;37.00;;;14.60;88.80;;;;;;5092996;28;20035;-72
2022/10/16 03:16:37;;;;;;;48.33;37.63;;;14.70;88.90;;;;;;5092334;28;20366;-73
2022/10/16 03:19:03;;;;;;;46.60;36.38;;;14.70;88.90;;;;;;5072671;28;20481;-72
2022/10/16 03:21:29;;;;;;;47.20;36.80;;;14.70;88.80;;;;;;5072471;28;20480;-72
2022/10/16 03:23:55;;;;;;;45.60;36.13;;;14.60;88.70;;;;;;5072449;28;20028;-73
2022/10/16 03:26:20;;;;;;;42.63;36.30;;;14.70;88.80;;;;;;5072860;28;20078;-72
2022/10/16 03:28:46;;;;;;;45.40;35.05;;;14.70;88.90;;;;;;5072594;28;20116;-72
2022/10/16 03:31:12;;;;;;;44.30;36.35;;;14.60;88.90;;;;;;5072586;28;20029;-73
2022/10/16 03:33:38;;;;;;;42.85;35.03;;;14.60;88.90;;;;;;5072509;28;20039;-73
2022/10/16 03:36:03;;;;;;;47.75;36.45;;;14.60;88.70;;;;;;5072475;28;20024;-73
2022/10/16 03:38:29;;;;;;;44.47;35.78;;;14.60;88.70;;;;;;5072578;28;20079;-72
2022/10/16 03:40:55;;;;;;;42.63;36.20;;;14.60;88.60;;;;;;5072275;28;20032;-72
2022/10/16 03:43:21;;;;;;;41.28;34.67;;;14.60;88.70;;;;;;5072678;28;20044;-72
2022/10/16 03:45:46;;;;;;;48.75;37.42;;;14.60;88.70;;;;;;5072186;28;20056;-73
2022/10/16 03:48:12;;;;;;;43.65;35.60;;;14.60;88.70;;;;;;5072614;28;20051;-72
2022/10/16 03:50:38;;;;;;;46.05;36.42;;;14.60;88.70;;;;;;5072504;28;20495;-72
2022/10/16 03:53:03;;;;;;;43.78;34.80;;;14.60;88.80;;;;;;5072394;28;20111;-73
2022/10/16 03:55:29;;;;;;;44.30;36.63;;;14.60;88.80;;;;;;5072433;28;20047;-73
2022/10/16 03:57:55;;;;;;;43.55;36.05;;;14.60;88.90;;;;;;5072359;28;20035;-73
2022/10/16 04:00:20;;;;;;;48.92;38.38;;;14.60;88.90;;;;;;5072280;28;20044;-73
2022/10/16 04:02:46;;;;;;;46.17;36.60;;;14.60;89.00;;;;;;5072522;28;20059;-72
2022/10/16 04:05:11;;;;;;;44.92;36.88;;;14.50;89.10;;;;;;5072281;28;20032;-72
2022/10/16 04:07:37;;;;;;;47.28;37.45;;;14.50;89.00;;;;;;5072689;28;20048;-72
2022/10/16 04:10:04;;;;;;;49.20;37.22;;;14.50;89.00;;;;;;5072210;28;20178;-73
2022/10/16 04:12:29;;;;;;;45.22;35.33;;;14.50;88.90;;;;;;5072434;28;20024;-72
2022/10/16 04:14:55;;;;;;;47.03;35.10;;;14.50;88.80;;;;;;5072264;28;20400;-72
2022/10/16 04:17:21;;;;;;;52.83;36.88;;;14.50;88.40;;;;;;5072318;28;20469;-72
2022/10/16 04:19:46;;;;;;;44.78;34.83;;;14.50;88.40;;;;;;5072203;28;20055;-72
2022/10/16 04:22:12;;;;;;;41.67;33.38;;;14.50;88.20;;;;;;5072830;28;20033;-72
2022/10/16 04:24:38;;;;;;;40.83;34.03;;;14.40;87.90;;;;;;5072965;28;20047;-72
2022/10/16 04:27:03;;;;;;;42.55;34.58;;;14.40;88.00;;;;;;5076091;28;20040;-72
2022/10/16 04:29:29;;;;;;;43.38;34.30;;;14.40;88.20;;;;;;5075359;28;20044;-73
2022/10/16 04:31:55;;;;;;;41.13;34.50;;;14.30;88.30;;;;;;5075650;28;20060;-73
2022/10/16 04:34:20;;;;;;;42.92;34.42;;;14.30;88.30;;;;;;5075685;28;20086;-72
2022/10/16 04:36:49;;;;;;;46.17;36.35;;;14.30;88.30;;;;;;5075521;28;20377;-72
2022/10/16 04:39:16;;;;;;;48.38;36.85;;;14.30;88.40;;;;;;5075498;28;20036;-72
2022/10/16 04:41:42;;;;;;;47.00;37.50;;;14.30;88.70;;;;;;5075551;28;20064;-75
2022/10/16 04:44:07;;;;;;;46.55;37.70;;;14.20;88.90;;;;;;5075358;28;20052;-73
2022/10/16 04:46:33;;;;;;;46.40;38.42;;;14.30;89.20;;;;;;5075393;28;20386;-73
2022/10/16 04:48:59;;;;;;;48.33;37.53;;;14.30;89.20;;;;;;5075278;28;20039;-72
2022/10/16 04:51:25;;;;;;;47.22;37.70;;;14.30;89.10;;;;;;5075259;28;20112;-73
2022/10/16 04:53:51;;;;;;;45.35;38.20;;;14.30;89.10;;;;;;5075619;28;20029;-72
2022/10/16 04:56:17;;;;;;;48.05;37.67;;;14.20;89.30;;;;;;5075244;28;20033;-73
2022/10/16 04:58:43;;;;;;;47.92;38.78;;;14.20;89.40;;;;;;5075049;28;20060;-73
2022/10/16 05:01:08;;;;;;;49.17;37.53;;;14.20;89.40;;;;;;5074945;28;20153;-72
2022/10/16 05:03:34;;;;;;;46.13;37.22;;;14.20;89.40;;;;;;5075361;28;20043;-73
2022/10/16 05:06:00;;;;;;;47.72;37.10;;;14.20;89.40;;;;;;5075106;28;20044;-72
2022/10/16 05:08:26;;;;;;;48.75;38.67;;;14.20;89.30;;;;;;5074816;28;20032;-73
2022/10/16 05:10:51;;;;;;;46.95;37.55;;;14.20;89.50;;;;;;5074888;28;20041;-72
2022/10/16 05:13:17;;;;;;;50.38;38.70;;;14.20;89.50;;;;;;5074782;28;20044;-73
2022/10/16 05:15:48;;;;;;;48.20;38.10;;;14.20;89.60;;;;;;5074928;28;20039;-72
2022/10/16 05:18:13;;;;;;;44.88;35.78;;;14.20;89.80;;;;;;5074771;28;20033;-81
2022/10/16 05:20:39;;;;;;;49.03;38.88;;;14.20;89.90;;;;;;5075254;28;20041;-73
2022/10/16 05:23:05;;;;;;;47.28;38.92;;;14.20;89.80;;;;;;5074715;28;20067;-72
2022/10/16 05:25:30;;;;;;;47.13;37.85;;;14.20;89.80;;;;;;5074728;28;20036;-73
2022/10/16 05:27:56;;;;;;;49.08;38.53;;;14.20;90.00;;;;;;5074564;28;20036;-73
2022/10/16 05:30:22;;;;;;;47.97;38.60;;;14.20;90.00;;;;;;5074853;28;20047;-73
2022/10/16 05:32:49;;;;;;;47.97;38.55;;;14.20;90.00;;;;;;5094193;28;20451;-72
2022/10/16 05:35:15;;;;;;;50.17;39.67;;;14.20;90.00;;;;;;5094410;28;20404;-73
2022/10/16 05:37:41;;;;;;;59.85;41.00;;;14.20;90.00;;;;;;5094550;28;20032;-73
2022/10/16 05:40:07;;;;;;;53.88;39.60;;;14.20;90.10;;;;;;5093542;28;20055;-73
2022/10/16 05:42:33;;;;;;;49.97;40.10;;;14.20;90.10;;;;;;5091672;28;20047;-73
2022/10/16 05:44:59;;;;;;;47.30;38.90;;;14.20;90.10;;;;;;5091702;28;20036;-74
2022/10/16 05:47:24;;;;;;;48.75;38.72;;;14.20;90.10;;;;;;5091433;28;20032;-73
2022/10/16 05:49:50;;;;;;;51.15;40.10;;;14.20;90.20;;;;;;5091658;28;20051;-72
2022/10/16 05:52:16;;;;;;;51.78;40.53;;;14.30;90.30;;;;;;5093226;28;20049;-72
2022/10/16 05:54:41;;;;;;;56.97;40.13;;;14.30;90.30;;;;;;5094305;28;20032;-79
2022/10/16 05:57:07;;;;;;;49.85;40.42;;;14.30;90.20;;;;;;5093920;28;20059;-72
2022/10/16 05:59:33;;;;;;;51.50;40.08;;;14.30;90.20;;;;;;5094199;28;20055;-72
2022/10/16 06:01:58;;;;;;;50.53;38.67;;;14.30;90.10;;;;;;5094112;28;20361;-72
2022/10/16 06:04:24;;;;;;;48.65;39.00;;;14.30;90.00;;;;;;5094180;28;20369;-73
2022/10/16 06:06:50;;;;;;;49.15;38.80;;;14.30;90.10;;;;;;5094497;28;20032;-72
2022/10/16 06:09:15;;;;;;;49.60;38.60;;;14.30;90.20;;;;;;5094042;28;20097;-73
2022/10/16 06:11:41;;;;;;;53.58;37.67;;;14.30;90.20;;;;;;5093627;28;20032;-73
2022/10/16 06:14:09;;;;;;;51.45;36.97;;;14.30;90.20;;;;;;5094073;28;20043;-73
2022/10/16 06:16:36;;;;;;;42.38;35.60;;;14.30;90.10;;;;;;5093589;28;20491;-74
2022/10/16 06:19:05;;;;;;;46.90;35.88;;;14.30;89.80;;;;;;5093556;28;20028;-73
2022/10/16 06:21:31;;;;;;;41.20;34.83;;;14.30;89.40;;;;;;5093475;28;20447;-73
2022/10/16 06:23:58;;;;;;;46.00;36.33;;;14.30;89.30;;;;;;5093764;28;20043;-73
2022/10/16 06:26:26;;;;;;;43.97;35.60;;;14.20;89.30;;;;;;5093768;28;20032;-73
2022/10/16 06:28:55;;;;;;;45.03;35.20;;;14.20;89.40;;;;;;5093701;28;20515;-73
2022/10/16 06:31:21;;;;;;;46.28;37.20;;;14.20;89.40;;;;;;5091766;28;20085;-82
2022/10/16 06:33:50;;;;;;;49.58;36.75;;;14.20;89.40;;;;;;5092764;28;20031;-76
2022/10/16 06:36:17;;;;;;;51.40;36.63;;;14.20;89.60;;;;;;5093165;28;20488;-72
2022/10/16 06:38:43;;;;;;;47.13;36.85;;;14.20;89.60;;;;;;5092773;28;20103;-80
2022/10/16 06:41:14;;;;;;;43.35;36.13;;;14.20;89.90;;;;;;5076509;28;20484;-73
2022/10/16 06:43:39;;;;;;;42.50;35.58;;;14.20;89.90;;;;;;5072757;28;20040;-74
2022/10/16 06:46:10;;;;;;;51.85;36.38;;;14.20;90.10;;;;;;5072826;28;20037;-79
2022/10/16 06:48:36;;;;;;;44.70;36.17;;;14.30;90.20;;;;;;5071576;28;20043;-80
2022/10/16 06:51:13;;;;;;;44.25;35.20;;;14.30;90.30;;;;;;5087113;28;20044;-74
2022/10/16 06:53:42;;;;;;;46.08;35.22;;;14.30;90.30;;;;;;5092959;28;20056;-73
2022/10/16 06:56:16;;;;;;;45.80;36.08;;;14.30;90.60;;;;;;5092832;28;20038;-72
2022/10/16 06:58:43;;;;;;;46.50;35.65;;;14.40;90.40;;;;;;5092438;28;20038;-82
2022/10/16 07:01:10;;;;;;;48.08;37.58;;;14.40;90.40;;;;;;5092461;28;20048;-81
2022/10/16 07:03:38;;;;;;;44.00;36.70;;;14.50;90.50;;;;;;5092486;28;20043;-73
2022/10/16 07:06:05;;;;;;;52.20;39.70;;;14.50;90.60;;;;;;5092985;28;20044;-82
2022/10/16 07:08:35;;;;;;;46.53;36.70;;;14.50;90.70;;;;;;5092974;28;20040;-83
2022/10/16 07:11:06;;;;;;;47.75;36.35;;;14.60;90.70;;;;;;5092896;28;20077;-84
2022/10/16 07:13:37;;;;;;;51.15;37.97;;;14.60;90.80;;;;;;5092208;28;20473;-73
2022/10/16 07:16:17;;;;;;;47.28;35.75;;;14.70;90.70;;;;;;5092010;28;20036;-83
2022/10/16 07:18:45;;;;;;;45.00;37.53;;;14.70;90.70;;;;;;5092915;28;20038;-84
2022/10/16 07:21:16;;;;;;;44.42;36.42;;;14.70;90.70;;;;;;5079692;28;20500;-81
2022/10/16 07:23:42;;;;;;;49.63;37.60;;;14.70;90.80;;;;;;5046863;28;20048;-82
2022/10/16 07:26:09;;;;;;;46.70;37.03;;;14.70;90.80;;;;;;5078813;28;20028;-83
2022/10/16 07:28:35;;;;;;;46.42;37.83;;;14.70;90.90;;;;;;5092101;28;20040;-84
2022/10/16 07:31:04;;;;;;;50.83;39.80;;;14.70;91.00;;;;;;5092322;28;20378;-74
2022/10/16 07:33:29;;;;;;;45.17;37.85;;;14.70;91.20;;;;;;5091442;28;20550;-81
2022/10/16 07:35:55;;;;;;;48.45;37.70;;;14.80;91.20;;;;;;5091216;28;20040;-74
2022/10/16 07:38:22;;;;;;;51.88;37.97;;;14.80;91.10;;;;;;5092786;28;20046;-79
2022/10/16 07:40:48;;;;;;;53.28;39.03;;;14.80;91.20;;;;;;5092155;28;20112;-74
2022/10/16 07:43:14;;;;;;;45.97;36.33;;;14.90;91.20;;;;;;5087992;28;20123;-80
2022/10/16 07:45:49;;;;;;;51.25;38.10;;;14.90;91.20;;;;;;5071766;28;20033;-85
2022/10/16 07:48:17;;;;;;;49.28;37.92;;;15.00;91.20;;;;;;5071985;28;20125;-74
2022/10/16 07:50:43;;;;;;;46.17;37.55;;;15.00;91.20;;;;;;5071694;28;20572;-84
2022/10/16 07:53:09;;;;;;;46.38;38.88;;;15.00;91.30;;;;;;5071973;28;20032;-73
2022/10/16 07:55:35;;;;;;;48.80;38.08;;;15.00;91.40;;;;;;5071850;28;20091;-73
2022/10/16 07:58:01;;;;;;;45.70;38.72;;;15.00;91.40;;;;;;5072000;28;20032;-73
2022/10/16 08:00:26;;;;;;;51.13;37.38;;;15.10;91.40;;;;;;5082564;28;20090;-77
2022/10/16 08:02:52;;;;;;;46.92;37.72;;;15.10;91.40;;;;;;5095786;28;20377;-84
2022/10/16 08:05:18;;;;;;;47.72;38.58;;;15.10;91.50;;;;;;5095705;28;20480;-73
2022/10/16 08:07:49;;;;;;;54.33;39.83;;;15.20;91.50;;;;;;5095763;28;20735;-73
2022/10/16 08:10:17;;;;;;;45.00;37.42;;;15.20;91.60;;;;;;5095775;28;20058;-76
2022/10/16 08:12:43;;;;;;;48.05;36.58;;;15.30;91.60;;;;;;5096046;28;20034;-74
2022/10/16 08:15:09;;;;;;;50.47;38.28;;;15.30;91.60;;;;;;5090021;28;20103;-83
2022/10/16 08:17:35;;;;;;;51.75;38.28;;;15.40;91.50;;;;;;5075630;28;20040;-85
2022/10/16 08:20:01;;;;;;;49.70;36.53;;;15.40;91.50;;;;;;5075447;28;20036;-80
2022/10/16 08:22:27;;;;;;;48.63;38.38;;;15.40;91.50;;;;;;5075232;28;20029;-76
2022/10/16 08:24:53;;;;;;;50.13;39.13;;;15.50;91.40;;;;;;5076370;28;20056;-85
2022/10/16 08:27:18;;;;;;;51.22;37.55;;;15.50;91.50;;;;;;5095489;28;20551;-74
2022/10/16 08:29:44;;;;;;;52.70;39.05;;;15.60;91.50;;;;;;5095774;28;20040;-86
2022/10/16 08:32:09;;;;;;;47.20;38.97;;;15.60;91.50;;;;;;5095867;28;20089;-74
2022/10/16 08:34:35;;;;;;;50.78;38.95;;;15.60;91.50;;;;;;5092939;28;20071;-73
2022/10/16 08:37:01;;;;;;;51.10;40.45;;;15.70;91.50;;;;;;5092718;28;20028;-73
2022/10/16 08:39:27;;;;;;;46.13;37.17;;;15.70;91.60;;;;;;5094800;28;20105;-79
2022/10/16 08:42:17;;;;;;;47.72;38.75;;;15.80;91.40;;;;;;5078804;28;20036;-74
2022/10/16 08:45:02;;;;;;;50.38;39.38;;;15.80;91.30;;;;;;5073998;28;20036;-74
2022/10/16 08:47:49;;;;;;;48.60;38.28;;;15.90;91.30;;;;;;5073524;28;20033;-73
2022/10/16 08:50:27;;;;;;;50.15;37.92;;;16.00;91.30;;;;;;5074667;28;20044;-73
2022/10/16 08:52:54;;;;;;;48.45;37.45;;;16.10;91.40;;;;;;5074637;28;20056;-73
2022/10/16 08:55:37;;;;;;;44.25;37.40;;;16.20;91.40;;;;;;5074510;28;20570;-73
2022/10/16 08:58:20;;;;;;;56.47;38.33;;;16.20;91.30;;;;;;5073171;28;20086;-73
2022/10/16 09:00:53;;;;;;;47.30;37.45;;;16.30;91.10;;;;;;5071865;28;20051;-73
2022/10/16 09:03:38;;;;;;;44.85;36.33;;;16.30;90.80;;;;;;5071557;28;20527;-73
2022/10/16 09:06:18;;;;;;;49.38;38.65;;;16.40;90.50;;;;;;5074104;28;20029;-73
2022/10/16 09:08:43;;;;;;;52.60;38.30;;;16.40;90.50;;;;;;5075029;28;20111;-73
2022/10/16 09:11:09;;;;;;;45.53;36.65;;;16.50;90.50;;;;;;5074455;28;20139;-73
2022/10/16 09:13:52;;;;;;;46.85;38.70;;;16.50;90.40;;;;;;5074626;28;20435;-73
2022/10/16 09:16:34;;;;;;;44.13;37.00;;;16.60;90.40;;;;;;5074775;28;20032;-73
2022/10/16 09:19:18;;;;;;;46.85;38.63;;;16.70;90.40;;;;;;5074939;28;20079;-73
2022/10/16 09:21:47;;;;;;;47.92;38.30;;;16.70;90.20;;;;;;5074495;28;20052;-72
2022/10/16 09:24:21;;;;;;;46.00;37.72;;;16.70;90.10;;;;;;5074511;28;20024;-74
2022/10/16 09:26:47;;;;;;;46.45;36.63;;;16.80;89.70;;;;;;5074750;28;20112;-73
2022/10/16 09:29:21;;;;;;;47.92;38.35;;;16.80;89.60;;;;;;5074197;28;20154;-73
2022/10/16 09:31:48;;;;;;;48.50;37.50;;;16.90;90.00;;;;;;5074372;28;20048;-73
2022/10/16 09:34:34;;;;;;;45.58;37.40;;;17.00;90.10;;;;;;5074510;28;20044;-73
2022/10/16 09:37:04;;;;;;;47.42;35.75;;;17.10;89.80;;;;;;5074606;28;20035;-73
2022/10/16 09:39:29;;;;;;;47.53;37.15;;;17.20;89.20;;;;;;5074764;28;20048;-73
2022/10/16 09:41:56;;;;;;;47.22;37.90;;;17.20;88.90;;;;;;5074415;28;20381;-73
2022/10/16 09:44:27;;;;;;;45.08;37.10;;;17.30;88.50;;;;;;5074075;28;20473;-73
2022/10/16 09:47:25;;;;;;;44.90;35.65;;;17.40;88.10;;;;;;5074304;28;20032;-73
2022/10/16 09:50:20;;;;;;;49.10;38.83;;;17.50;87.60;;;;;;5069948;28;20060;-73
2022/10/16 09:52:45;;;;;;;46.78;36.17;;;17.50;87.50;;;;;;5073978;28;20032;-73
2022/10/16 09:55:17;;;;;;;46.78;36.92;;;17.60;87.70;;;;;;5074082;28;20033;-73
2022/10/16 09:57:55;;;;;;;45.72;37.08;;;17.60;87.80;;;;;;5074115;28;20028;-85
2022/10/16 10:00:22;;;;;;;46.92;37.25;;;17.60;87.80;;;;;;5073863;28;20048;-73
2022/10/16 10:02:49;;;;;;;42.90;36.58;;;17.70;88.10;;;;;;5073914;28;20081;-72
2022/10/16 10:05:26;;;;;;;46.67;37.83;;;17.70;87.90;;;;;;5073874;28;20033;-73
2022/10/16 10:08:05;;;;;;;46.67;37.63;;;17.70;87.90;;;;;;5074095;28;20028;-73
2022/10/16 10:10:36;;;;;;;47.67;38.47;;;17.80;87.50;;;;;;5073911;28;20049;-73
2022/10/16 10:13:02;;;;;;;50.13;38.28;;;17.90;87.40;;;;;;5074210;28;20032;-73
2022/10/16 10:15:34;;;;;;;50.15;39.72;;;17.90;86.90;;;;;;5073591;28;20480;-73
2022/10/16 10:18:03;;;;;;;47.60;39.83;;;18.00;87.00;;;;;;5073824;28;20476;-74
2022/10/16 10:20:38;;;;;;;48.60;38.58;;;18.10;87.00;;;;;;5073552;28;20400;-73
2022/10/16 10:23:30;;;;;;;52.70;39.05;;;18.10;86.70;;;;;;5072674;28;20472;-73
2022/10/16 10:26:17;;;;;;;46.00;38.97;;;18.20;86.90;;;;;;5072666;28;20436;-73
2022/10/16 10:29:06;;;;;;;50.88;40.92;;;18.30;87.20;;;;;;5073436;28;20041;-85
2022/10/16 10:31:39;;;;;;;48.78;39.72;;;18.40;86.20;;;;;;5073483;28;20492;-73
2022/10/16 10:34:43;;;;;;;48.25;39.38;;;18.50;85.20;;;;;;5073637;28;20037;-73
2022/10/16 10:37:08;;;;;;;56.90;39.80;;;18.60;85.70;;;;;;5073741;28;20064;-73
2022/10/16 10:39:45;;;;;;;50.75;38.92;;;18.60;84.60;;;;;;5073356;28;20068;-73
2022/10/16 10:58:49;;;;;;;61.28;41.22;;;19.00;84.60;;;;;;5028593;28;20182;-73
2022/10/16 11:01:18;;;;;;;57.45;38.70;;;19.10;84.20;;;;;;5048168;28;20053;-73
2022/10/16 11:04:25;;;;;;;59.75;43.05;;;19.20;84.00;;;;;;5051459;28;20044;-73
2022/10/16 11:06:59;;;;;;;59.50;44.30;;;19.30;83.10;;;;;;5029362;28;20041;-73
2022/10/16 11:09:49;;;;;;;59.10;42.53;;;19.40;81.30;;;;;;5052813;28;20124;-73
2022/10/16 11:12:20;;;;;;;66.72;42.33;;;19.50;81.60;;;;;;5052992;28;20029;-74
2022/10/16 11:14:49;;;;;;;64.40;45.05;;;19.50;82.30;;;;;;5052952;28;20047;-73
2022/10/16 11:17:18;;;;;;;61.03;43.45;;;19.60;81.40;;;;;;5052965;28;20061;-73
2022/10/16 11:19:52;;;;;;;65.82;45.92;;;19.60;81.60;;;;;;5052688;28;20486;-76
2022/10/16 11:22:33;;;;;;;68.50;46.15;;;19.70;81.20;;;;;;5035257;28;20448;-73
2022/10/16 11:25:20;;;;;;;61.60;46.03;;;19.80;81.10;;;;;;5049994;28;20071;-73
2022/10/16 11:28:03;;;;;;;65.72;44.28;;;19.80;81.00;;;;;;5049997;28;20107;-74
2022/10/16 11:30:40;;;;;;;60.33;41.92;;;19.90;80.60;;;;;;5051780;28;20120;-73
2022/10/16 11:33:09;;;;;;;57.35;43.08;;;20.00;80.60;;;;;;5052486;28;20063;-74
2022/10/16 11:35:47;;;;;;;60.90;42.00;;;20.00;79.50;;;;;;5056521;28;20055;-74
2022/10/16 11:38:31;;;;;;;57.47;40.75;;;20.00;79.80;;;;;;5056417;28;20139;-73
2022/10/16 11:41:03;;;;;;;57.03;41.85;;;20.10;79.50;;;;;;5056648;28;20041;-73
2022/10/16 11:43:43;;;;;;;58.00;42.38;;;20.10;78.60;;;;;;5056660;28;20079;-73
2022/10/16 11:46:15;;;;;;;52.60;40.35;;;20.10;77.90;;;;;;5056170;28;20033;-73
2022/10/16 11:49:06;;;;;;;52.40;40.60;;;20.20;78.30;;;;;;5056295;28;20033;-73
2022/10/16 11:51:55;;;;;;;54.45;39.17;;;20.30;78.40;;;;;;5056254;28;20073;-73
2022/10/16 11:54:42;;;;;;;63.38;40.50;;;20.30;79.20;;;;;;5055939;28;20033;-74
2022/10/16 11:57:22;;;;;;;53.33;42.05;;;20.40;78.80;;;;;;5056212;28;20140;-73
2022/10/16 11:59:56;;;;;;;56.30;39.88;;;20.50;78.70;;;;;;5056232;28;20045;-73
2022/10/16 12:02:28;;;;;;;58.03;42.10;;;20.40;78.50;;;;;;5056036;28;20056;-73
2022/10/16 12:05:12;;;;;;;52.88;40.15;;;20.50;77.30;;;;;;5056240;28;20094;-74
2022/10/16 12:07:50;;;;;;;60.05;40.42;;;20.60;76.00;;;;;;5038140;28;20385;-73
2022/10/16 12:10:28;;;;;;;50.78;38.42;;;20.60;77.10;;;;;;5056128;28;20087;-73
2022/10/16 12:12:53;;;;;;;50.00;38.67;;;20.60;77.10;;;;;;5056255;28;20025;-73
2022/10/16 12:15:34;;;;;;;59.00;40.13;;;20.60;77.60;;;;;;5055943;28;20029;-73
2022/10/16 12:18:00;;;;;;;54.55;39.50;;;20.60;76.80;;;;;;5055551;28;20029;-86
2022/10/16 12:20:36;;;;;;;60.97;39.90;;;20.60;77.40;;;;;;5054839;28;20136;-74
2022/10/16 12:23:06;;;;;;;59.10;40.55;;;20.60;77.10;;;;;;5055474;28;20025;-73
2022/10/16 12:25:37;;;;;;;55.22;38.30;;;20.60;77.00;;;;;;5055402;28;20493;-75
2022/10/16 12:28:05;;;;;;;51.07;39.37;;;20.50;76.30;;;;;;5055587;28;20036;-74
2022/10/16 12:30:36;;;;;;;54.70;42.03;;;20.60;77.10;;;;;;5054669;28;20291;-75
2022/10/16 12:33:23;;;;;;;56.63;41.75;;;20.60;77.10;;;;;;5055705;28;20033;-73
2022/10/16 12:35:50;;;;;;;54.85;41.92;;;20.60;76.40;;;;;;5055398;28;20049;-73
2022/10/16 12:38:21;;;;;;;58.63;42.42;;;20.50;76.40;;;;;;5055023;28;20478;-73
2022/10/16 12:41:08;;;;;;;58.13;40.10;;;20.60;76.10;;;;;;5055205;28;20048;-73
2022/10/16 12:43:39;;;;;;;63.22;43.22;;;20.50;76.80;;;;;;5055019;28;20036;-73
2022/10/16 12:46:07;;;;;;;56.42;40.58;;;20.50;76.00;;;;;;5053928;28;20060;-73
2022/10/16 12:48:34;;;;;;;54.58;39.67;;;20.50;75.80;;;;;;5054751;28;20033;-73
2022/10/16 12:51:25;;;;;;;51.63;38.50;;;20.50;76.00;;;;;;5054862;28;20041;-73
2022/10/16 12:54:00;;;;;;;61.33;45.25;;;20.60;77.00;;;;;;5046529;28;20040;-73
2022/10/16 12:56:59;;;;;;;60.55;40.25;;;20.60;76.70;;;;;;5054749;28;20033;-76
2022/10/16 12:59:33;;;;;;;58.35;38.35;;;20.60;76.80;;;;;;5054564;28;20053;-81
2022/10/16 13:02:47;;;;;;;49.10;37.40;;;20.60;77.50;;;;;;5054743;28;20560;-72